Huvudsida
METAR-TAF:

METAR-TAF

Flygplatser :

Al Khardj, Saudiarabien

latitud: 24-03-19N, longitud: 047-33-49E, höjd: 503 m

Aktuellt väderrapport

Denna rapport gjordes för 53 minuter sedan, klockan 23:00 UTC
Vind 12 kt från ost
Temperatur 19°C
Fuktighet 73%
Tryck 1018 hPa
Sikt 10 km eller mer

METAR: OEKJ 182300Z 10012KT 9999 NSC 19/14 Q1018

Tid: 02:53 (23:53 UTC)

Väderprognos

Denna rapport gjordes för 53 minuter sedan, klockan 23:00 UTC
Prognos gäller från 19 kl. 00 UTC till 20 kl. 06 UTC
Vind 12 kt från ost
Sikt: 7000 m
Spridda moln på en höjd av 4000 ft
Spridda moln på en höjd av 8000 ft
Temporärt
från 19 kl. 00 UTC till 19 kl. 12 UTC
Sikt: 5000 m
Få moln på en höjd av 3500 ft, Cumulonimbus.
Brutna moln på en höjd av 4000 ft
Spridda moln på en höjd av 8000 ft
högt damm drev, åska, regn

TAF: OEKJ 182300Z 1900/2006 08012KT 7000 SCT040 SCT080 TEMPO 1900/1912 5000 BLDU TSRA FEW035CB BKN040 SCT080

Aktuella väderrapporter och prognoser från 4000 flygplatser (METAR- och TAF-rapporter).

De tillgängliga stationerna syns som gula och röda prickar på kartan.

För musen över prickarna för att se namnen på stationerna.

Klicka sedan för att få väderrapporter och prognoser.

För att ändra kartan: Klicka på de gröna knapparna med ett svart kors på för att zooma in; den gröna knappen med ett streck på för att zooma ut; eller på de gröna pilarna för angränsande kartor.


METAR-TAF: